createdAt,value
2018-12-19T00:00:01.855Z,30.03
2018-12-19T00:02:34.085Z,30.97
2018-12-19T00:05:05.239Z,30.27
2018-12-19T00:07:37.549Z,31.30
2018-12-19T00:10:08.016Z,30.07
2018-12-19T00:12:42.910Z,30.10
2018-12-19T00:15:15.206Z,31.20
2018-12-19T00:17:47.298Z,31.37
2018-12-19T00:20:21.146Z,30.07
2018-12-19T00:22:53.686Z,29.97
2018-12-19T00:25:25.495Z,29.63
2018-12-19T00:27:57.942Z,27.17
2018-12-19T00:30:30.245Z,29.20
2018-12-19T00:33:02.147Z,28.33
2018-12-19T00:35:32.468Z,27.43
2018-12-19T00:38:04.165Z,26.30
2018-12-19T00:40:36.375Z,27.63
2018-12-19T00:43:08.544Z,29.03
2018-12-19T00:45:40.767Z,29.33
2018-12-19T00:48:12.978Z,29.80
2018-12-19T00:50:45.209Z,30.57
2018-12-19T00:53:17.409Z,30.23
2018-12-19T00:55:49.373Z,29.37
2018-12-19T00:58:23.865Z,27.80
2018-12-19T01:00:55.742Z,31.03
2018-12-19T01:03:27.988Z,29.33
2018-12-19T01:06:00.170Z,30.97
2018-12-19T01:08:30.486Z,30.23
2018-12-19T01:11:02.862Z,30.97
2018-12-19T01:13:35.005Z,30.47
2018-12-19T01:16:07.404Z,31.00
2018-12-19T01:18:39.671Z,31.77
2018-12-19T01:21:14.812Z,30.60
2018-12-19T01:23:46.916Z,31.03
2018-12-19T01:26:19.187Z,33.53
2018-12-19T01:28:51.606Z,30.93
2018-12-19T01:31:24.946Z,33.80
2018-12-19T01:33:55.268Z,31.93
2018-12-19T01:36:27.218Z,34.73
2018-12-19T01:38:59.536Z,30.93
2018-12-19T01:41:31.599Z,32.57
2018-12-19T01:44:04.118Z,30.60
2018-12-19T01:46:36.525Z,30.90
2018-12-19T01:49:08.581Z,31.43
2018-12-19T01:51:40.717Z,33.30
2018-12-19T01:54:11.159Z,33.40
2018-12-19T01:56:43.316Z,36.03
2018-12-19T01:59:17.710Z,34.67
2018-12-19T02:01:49.920Z,35.50
2018-12-19T02:04:21.761Z,32.97
2018-12-19T02:06:52.603Z,35.50
2018-12-19T02:09:28.901Z,34.37
2018-12-19T02:11:59.123Z,33.40
2018-12-19T02:14:31.160Z,32.13
2018-12-19T02:17:03.278Z,34.07
2018-12-19T02:19:35.238Z,32.53
2018-12-19T02:22:10.016Z,46.80
2018-12-19T02:24:41.752Z,33.63
2018-12-19T02:27:14.212Z,35.03
2018-12-19T02:29:46.534Z,34.77
2018-12-19T02:32:18.529Z,32.67
2018-12-19T02:34:50.805Z,32.93
2018-12-19T02:37:23.210Z,33.23
2018-12-19T02:39:55.660Z,32.77
2018-12-19T02:42:27.765Z,32.87
2018-12-19T02:45:00.216Z,32.03
2018-12-19T02:47:46.676Z,32.03
2018-12-19T02:50:18.731Z,32.77
2018-12-19T02:52:49.092Z,33.63
2018-12-19T02:55:21.308Z,34.07
2018-12-19T02:57:53.753Z,32.93
2018-12-19T03:00:25.970Z,32.70
2018-12-19T03:02:58.281Z,32.43
2018-12-19T03:05:30.715Z,31.07
2018-12-19T03:08:02.752Z,30.73
2018-12-19T03:10:34.977Z,29.90
2018-12-19T03:13:07.031Z,32.80
2018-12-19T03:15:39.433Z,31.73
2018-12-19T03:18:11.313Z,30.07
2018-12-19T03:20:43.695Z,30.93
2018-12-19T03:23:15.751Z,28.43
2018-12-19T03:25:48.081Z,30.53
2018-12-19T03:28:20.054Z,27.97
2018-12-19T03:30:50.250Z,27.67
2018-12-19T03:33:22.719Z,27.57
2018-12-19T03:35:53.043Z,25.17
2018-12-19T03:38:25.336Z,27.40
2018-12-19T03:40:57.564Z,25.57
2018-12-19T03:43:29.886Z,26.07
2018-12-19T03:46:02.377Z,26.50
2018-12-19T03:48:40.049Z,24.47
2018-12-19T03:51:11.739Z,25.93
2018-12-19T03:53:41.742Z,25.27
2018-12-19T03:56:14.348Z,23.40
2018-12-19T03:58:46.624Z,24.83
2018-12-19T04:01:18.351Z,25.30
2018-12-19T04:06:48.306Z,25.57
2018-12-19T04:09:18.785Z,24.30
2018-12-19T04:11:50.987Z,25.17
2018-12-19T04:14:23.305Z,26.00
2018-12-19T04:16:55.719Z,24.10
2018-12-19T04:19:27.805Z,25.53
2018-12-19T04:21:58.229Z,24.00
2018-12-19T04:24:30.466Z,23.77
2018-12-19T04:27:00.694Z,24.70
2018-12-19T04:29:33.609Z,22.47
2018-12-19T04:32:04.132Z,22.60
2018-12-19T04:34:36.671Z,24.70
2018-12-19T04:37:06.770Z,23.90
2018-12-19T04:39:38.932Z,25.77
2018-12-19T04:42:09.240Z,22.63
2018-12-19T04:44:41.265Z,23.00
2018-12-19T04:47:13.288Z,22.77
2018-12-19T04:49:43.729Z,22.33
2018-12-19T04:52:15.969Z,22.07
2018-12-19T04:54:47.615Z,22.43
2018-12-19T04:57:19.757Z,23.60
2018-12-19T04:59:51.903Z,24.30
2018-12-19T05:02:24.094Z,23.07
2018-12-19T05:04:56.184Z,22.20
2018-12-19T05:07:28.874Z,22.03
2018-12-19T05:10:03.451Z,21.57
2018-12-19T05:12:35.184Z,22.10
2018-12-19T05:15:09.251Z,21.30
2018-12-19T05:17:41.711Z,19.87
2018-12-19T05:20:13.892Z,19.53
2018-12-19T05:22:46.785Z,19.73
2018-12-19T05:25:24.984Z,20.00
2018-12-19T05:28:05.406Z,19.90
2018-12-19T05:30:36.060Z,19.30
2018-12-19T05:33:08.242Z,19.63
2018-12-19T05:35:41.590Z,18.47
2018-12-19T05:38:14.022Z,17.83
2018-12-19T05:40:46.460Z,18.00
2018-12-19T05:43:16.688Z,17.60
2018-12-19T05:45:46.829Z,18.13
2018-12-19T05:48:18.856Z,18.83
2018-12-19T05:50:50.988Z,18.50
2018-12-19T05:53:24.895Z,17.10
2018-12-19T05:55:56.506Z,17.23
2018-12-19T05:58:26.805Z,17.47
2018-12-19T06:00:59.305Z,16.83
2018-12-19T06:03:31.465Z,16.47
2018-12-19T06:06:03.474Z,16.00
2018-12-19T06:08:35.644Z,15.43
2018-12-19T06:11:07.870Z,15.83
2018-12-19T06:13:39.913Z,15.63
2018-12-19T06:16:12.038Z,14.37
2018-12-19T06:18:44.224Z,13.67
2018-12-19T06:21:16.637Z,13.90
2018-12-19T06:23:46.968Z,13.67
2018-12-19T06:26:19.215Z,14.33
2018-12-19T06:28:51.449Z,14.73
2018-12-19T06:31:23.831Z,14.60
2018-12-19T06:33:56.472Z,13.70
2018-12-19T06:36:28.615Z,13.43
2018-12-19T06:39:01.777Z,14.73
2018-12-19T06:41:33.805Z,13.10
2018-12-19T06:44:05.811Z,14.00
2018-12-19T06:46:38.422Z,14.07
2018-12-19T06:49:10.100Z,13.13
2018-12-19T06:51:42.124Z,13.03
2018-12-19T06:54:14.364Z,12.10
2018-12-19T06:56:46.608Z,11.23
2018-12-19T06:59:18.885Z,12.90
2018-12-19T07:01:51.116Z,11.37
2018-12-19T07:04:23.571Z,10.10
2018-12-19T07:06:55.889Z,11.73
2018-12-19T07:09:27.919Z,12.47
2018-12-19T07:12:00.127Z,12.30
2018-12-19T07:14:41.071Z,10.77
2018-12-19T07:17:14.326Z,11.43
2018-12-19T07:19:48.964Z,11.77
2018-12-19T07:22:25.559Z,12.67
2018-12-19T07:24:57.054Z,12.60
2018-12-19T07:27:29.870Z,12.73
2018-12-19T07:30:02.506Z,11.77
2018-12-19T07:32:34.861Z,11.83
2018-12-19T07:35:13.932Z,11.80
2018-12-19T07:40:46.150Z,11.30
2018-12-19T07:43:36.944Z,8.63
2018-12-19T07:46:10.845Z,10.17
2018-12-19T07:48:46.548Z,9.27
2018-12-19T07:51:28.521Z,9.97
2018-12-19T07:54:16.313Z,9.27
2018-12-19T07:56:52.303Z,10.90
2018-12-19T07:59:37.394Z,11.17
2018-12-19T08:02:33.780Z,10.13
2018-12-19T08:05:25.953Z,10.33
2018-12-19T08:08:08.012Z,10.53
2018-12-19T08:13:43.508Z,10.30
2018-12-19T08:19:28.448Z,9.07
2018-12-19T08:28:04.392Z,10.90
2018-12-19T08:30:55.217Z,11.63
2018-12-19T08:33:48.607Z,13.83
2018-12-19T08:36:36.870Z,14.00
2018-12-19T08:39:44.779Z,11.60
2018-12-19T08:43:02.872Z,11.07
2018-12-19T08:46:24.150Z,10.83
2018-12-19T09:07:55.725Z,11.80
2018-12-19T09:10:31.403Z,11.67
2018-12-19T09:13:02.886Z,9.73
2018-12-19T09:15:53.030Z,10.87
2018-12-19T09:18:26.322Z,11.23
2018-12-19T09:21:00.737Z,11.80
2018-12-19T09:23:33.510Z,12.40
2018-12-19T09:26:05.452Z,10.93
2018-12-19T09:28:37.699Z,11.63
2018-12-19T09:31:09.617Z,11.27
2018-12-19T09:33:41.898Z,11.93
2018-12-19T09:36:15.231Z,12.20
2018-12-19T09:38:45.502Z,11.17
2018-12-19T09:41:17.681Z,12.00
2018-12-19T09:43:50.135Z,11.50
2018-12-19T09:46:21.940Z,12.97
2018-12-19T09:48:56.290Z,11.37
2018-12-19T09:51:28.334Z,10.37
2018-12-19T09:54:00.368Z,11.63
2018-12-19T09:56:32.789Z,12.03
2018-12-19T09:59:03.085Z,12.03
2018-12-19T10:01:35.218Z,14.03
2018-12-19T10:04:07.503Z,13.80
2018-12-19T10:06:39.231Z,11.57
2018-12-19T10:09:14.960Z,12.83
2018-12-19T10:11:47.520Z,12.10
2018-12-19T10:14:22.149Z,12.40
2018-12-19T10:16:54.808Z,12.57
2018-12-19T10:19:26.780Z,12.87
2018-12-19T10:21:59.769Z,11.60
2018-12-19T10:24:36.732Z,11.30
2018-12-19T10:27:08.752Z,11.70
2018-12-19T10:29:40.973Z,11.17
2018-12-19T10:32:13.110Z,11.00
2018-12-19T10:34:45.855Z,11.47
2018-12-19T10:37:17.679Z,11.60
2018-12-19T10:39:50.252Z,12.70
2018-12-19T10:42:23.182Z,11.87
2018-12-19T10:44:55.998Z,12.10
2018-12-19T10:47:27.665Z,11.37
2018-12-19T10:49:59.921Z,11.13
2018-12-19T10:52:32.500Z,11.40
2018-12-19T10:55:05.558Z,11.83
2018-12-19T10:57:35.974Z,10.73
2018-12-19T11:00:15.896Z,11.70
2018-12-19T11:02:49.040Z,10.37
2018-12-19T11:05:20.780Z,10.87
2018-12-19T11:07:56.218Z,11.47
2018-12-19T11:10:28.763Z,9.83
2018-12-19T11:13:01.240Z,11.53
2018-12-19T11:18:05.741Z,10.30
2018-12-19T11:20:37.560Z,11.00
2018-12-19T11:23:09.615Z,11.00
2018-12-19T11:25:42.632Z,10.90
2018-12-19T11:28:15.079Z,10.27
2018-12-19T11:30:47.457Z,10.47
2018-12-19T11:33:19.467Z,11.00
2018-12-19T11:35:51.742Z,10.53
2018-12-19T11:38:24.088Z,8.53
2018-12-19T11:40:56.359Z,10.23
2018-12-19T11:43:28.735Z,11.83
2018-12-19T11:46:06.768Z,11.13
2018-12-19T11:48:39.404Z,10.30
2018-12-19T11:51:11.660Z,10.63
2018-12-19T11:53:45.201Z,12.37
2018-12-19T11:56:17.471Z,12.00
2018-12-19T11:58:53.962Z,12.27
2018-12-19T12:01:27.006Z,11.93
2018-12-19T12:03:59.604Z,11.63
2018-12-19T12:06:31.647Z,11.97
2018-12-19T12:09:07.066Z,11.33
2018-12-19T12:11:45.443Z,11.93
2018-12-19T12:14:11.540Z,12.37
2018-12-19T12:16:46.230Z,11.07
2018-12-19T12:19:22.749Z,12.13
2018-12-19T12:22:01.324Z,12.30
2018-12-19T12:24:36.359Z,11.70
2018-12-19T12:27:11.696Z,12.07
2018-12-19T12:29:46.475Z,14.33
2018-12-19T12:32:23.145Z,12.93
2018-12-19T12:35:01.879Z,13.07
2018-12-19T12:38:20.787Z,12.57
2018-12-19T12:43:57.379Z,13.00
2018-12-19T12:46:30.527Z,13.43
2018-12-19T12:49:04.794Z,13.40
2018-12-19T12:51:37.465Z,13.77
2018-12-19T12:54:10.277Z,14.23
2018-12-19T12:56:42.691Z,13.83
2018-12-19T12:59:15.610Z,13.90
2018-12-19T13:04:41.517Z,14.37
2018-12-19T13:07:14.051Z,14.43
2018-12-19T13:09:46.363Z,14.43
2018-12-19T13:12:18.647Z,14.40
2018-12-19T13:14:52.964Z,14.97
2018-12-19T13:17:24.751Z,15.40
2018-12-19T13:19:56.683Z,16.13
2018-12-19T13:22:29.988Z,16.03
2018-12-19T13:25:04.953Z,17.03
2018-12-19T13:27:37.414Z,16.07
2018-12-19T13:30:11.666Z,16.13
2018-12-19T13:32:44.408Z,16.80
2018-12-19T13:35:16.188Z,16.47
2018-12-19T13:37:48.519Z,16.70
2018-12-19T13:40:20.486Z,16.53
2018-12-19T13:42:53.204Z,16.67
2018-12-19T13:45:25.694Z,17.27
2018-12-19T13:47:57.967Z,17.07
2018-12-19T13:50:32.207Z,17.97
2018-12-19T13:53:04.282Z,16.50
2018-12-19T13:55:37.096Z,18.03
2018-12-19T13:58:09.775Z,17.40
2018-12-19T14:00:41.739Z,17.20
2018-12-19T14:03:14.096Z,16.53
2018-12-19T14:05:46.144Z,16.93
2018-12-19T14:08:16.448Z,16.83
2018-12-19T14:10:48.920Z,17.17
2018-12-19T14:13:23.643Z,16.70
2018-12-19T14:15:56.249Z,16.27
2018-12-19T14:19:32.142Z,16.77
2018-12-19T14:22:04.424Z,17.93
2018-12-19T14:24:36.501Z,17.70
2018-12-19T14:27:08.791Z,16.27
2018-12-19T14:29:41.573Z,16.93
2018-12-19T14:32:13.841Z,17.23
2018-12-19T14:34:45.768Z,17.63
2018-12-19T14:37:18.011Z,15.27
2018-12-19T14:39:49.999Z,17.47
2018-12-19T14:42:21.839Z,18.00
2018-12-19T14:44:55.329Z,17.77
2018-12-19T14:47:27.236Z,17.87
2018-12-19T14:49:59.551Z,17.47
2018-12-19T14:52:31.573Z,18.37
2018-12-19T14:55:03.683Z,17.13
2018-12-19T14:57:35.738Z,16.43
2018-12-19T15:00:11.472Z,18.47
2018-12-19T15:02:44.561Z,17.00
2018-12-19T15:05:20.842Z,18.23
2018-12-19T15:07:53.674Z,19.50
2018-12-19T15:10:25.785Z,18.90
2018-12-19T15:12:57.796Z,20.80
2018-12-19T15:15:30.575Z,21.07
2018-12-19T15:18:04.697Z,18.90
2018-12-19T15:20:38.954Z,17.87
2018-12-19T15:23:11.022Z,16.73
2018-12-19T15:25:43.166Z,15.43
2018-12-19T15:28:14.915Z,25.23
2018-12-19T15:30:47.402Z,22.27
2018-12-19T15:33:19.672Z,21.87
2018-12-19T15:36:05.803Z,20.60
2018-12-19T15:38:37.661Z,20.67
2018-12-19T15:41:10.215Z,20.60
2018-12-19T15:43:42.407Z,19.73
2018-12-19T15:46:14.533Z,20.37
2018-12-19T15:48:46.601Z,19.73
2018-12-19T15:51:19.425Z,21.37
2018-12-19T15:53:51.280Z,19.13
2018-12-19T15:56:23.536Z,18.03
2018-12-19T15:58:55.850Z,21.20
2018-12-19T16:01:28.826Z,21.10
2018-12-19T16:04:01.087Z,21.20
2018-12-19T16:06:33.606Z,20.17
2018-12-19T16:09:07.923Z,19.23
2018-12-19T16:11:40.956Z,17.50
2018-12-19T16:14:13.656Z,21.03
2018-12-19T16:16:45.732Z,20.60
2018-12-19T16:19:18.039Z,21.10
2018-12-19T16:21:50.018Z,15.47
2018-12-19T16:24:26.718Z,19.97
2018-12-19T16:27:00.501Z,17.70
2018-12-19T16:29:33.192Z,18.97
2018-12-19T16:32:05.037Z,19.57
2018-12-19T16:34:35.144Z,20.57
2018-12-19T16:37:12.676Z,20.07
2018-12-19T16:39:45.161Z,19.83
2018-12-19T16:42:19.728Z,22.17
2018-12-19T16:44:51.884Z,22.60
2018-12-19T16:47:28.398Z,21.70
2018-12-19T16:50:00.951Z,20.80
2018-12-19T16:55:26.900Z,20.57
2018-12-19T16:57:59.007Z,20.30
2018-12-19T17:00:31.448Z,21.30
2018-12-19T17:03:03.273Z,20.40
2018-12-19T17:05:35.733Z,20.27
2018-12-19T17:08:07.793Z,20.57
2018-12-19T17:10:39.904Z,21.67
2018-12-19T17:13:12.156Z,20.77
2018-12-19T17:15:44.431Z,21.07
2018-12-19T17:18:17.251Z,20.90
2018-12-19T17:20:49.309Z,20.50
2018-12-19T17:23:21.705Z,21.73
2018-12-19T17:25:53.804Z,22.30
2018-12-19T17:28:26.191Z,21.63
2018-12-19T17:30:58.194Z,22.30
2018-12-19T17:33:30.628Z,24.23
2018-12-19T17:36:03.155Z,21.33
2018-12-19T17:38:35.269Z,21.53
2018-12-19T17:41:07.327Z,21.53
2018-12-19T17:43:39.529Z,22.87
2018-12-19T17:46:12.060Z,23.20
2018-12-19T17:48:46.408Z,21.70
2018-12-19T17:51:18.356Z,22.73
2018-12-19T17:53:50.588Z,30.07
2018-12-19T17:56:22.596Z,32.83
2018-12-19T17:58:54.873Z,24.67
2018-12-19T18:01:28.596Z,24.90
2018-12-19T18:04:00.508Z,23.37
2018-12-19T18:06:32.563Z,24.60
2018-12-19T18:11:58.836Z,22.40
2018-12-19T18:14:29.344Z,24.80
2018-12-19T18:17:01.496Z,24.10
2018-12-19T18:19:33.336Z,23.17
2018-12-19T18:22:05.689Z,24.93
2018-12-19T18:24:35.676Z,32.93
2018-12-19T18:27:08.384Z,24.67
2018-12-19T18:29:40.112Z,23.10
2018-12-19T18:32:12.576Z,24.40
2018-12-19T18:34:44.561Z,22.60
2018-12-19T18:37:19.407Z,23.00
2018-12-19T18:39:52.181Z,22.63
2018-12-19T18:42:25.076Z,23.20
2018-12-19T18:44:59.700Z,22.63
2018-12-19T18:47:41.736Z,22.43
2018-12-19T18:53:01.582Z,24.23
2018-12-19T18:55:36.188Z,22.10
2018-12-19T18:58:09.335Z,23.87
2018-12-19T19:00:43.866Z,22.23
2018-12-19T19:03:16.252Z,21.10
2018-12-19T19:05:48.377Z,22.30
2018-12-19T19:08:20.524Z,24.20
2018-12-19T19:10:53.027Z,32.10
2018-12-19T19:13:24.930Z,20.97
2018-12-19T19:15:57.005Z,22.93
2018-12-19T19:18:29.391Z,21.23
2018-12-19T19:21:01.764Z,22.27
2018-12-19T19:23:36.125Z,23.40
2018-12-19T19:29:02.023Z,22.73
2018-12-19T19:31:34.367Z,26.33
2018-12-19T19:34:06.368Z,23.97
2018-12-19T19:36:39.476Z,22.07
2018-12-19T19:39:09.981Z,22.43
2018-12-19T19:41:41.886Z,23.60
2018-12-19T19:44:14.038Z,23.10
2018-12-19T19:46:46.489Z,22.67
2018-12-19T19:49:18.751Z,23.73
2018-12-19T19:51:51.123Z,21.70
2018-12-19T19:54:23.370Z,21.00
2018-12-19T19:56:55.836Z,22.03
2018-12-19T19:59:28.196Z,23.97
2018-12-19T20:02:00.413Z,25.23
2018-12-19T20:04:32.552Z,24.17
2018-12-19T20:07:05.133Z,25.00
2018-12-19T20:09:37.520Z,23.60
2018-12-19T20:12:09.800Z,23.43
2018-12-19T20:14:42.116Z,23.73
2018-12-19T20:17:18.088Z,25.03
2018-12-19T20:19:50.525Z,23.20
2018-12-19T20:22:23.161Z,23.90
2018-12-19T20:24:55.307Z,23.30
2018-12-19T20:27:30.536Z,25.47
2018-12-19T20:30:02.585Z,24.80
2018-12-19T20:32:34.719Z,21.03
2018-12-19T20:35:09.542Z,24.43
2018-12-19T20:37:41.281Z,23.73
2018-12-19T20:40:19.324Z,24.27
2018-12-19T20:45:46.299Z,24.77
2018-12-19T20:48:19.842Z,24.73
2018-12-19T20:50:54.120Z,25.00
2018-12-19T20:53:26.326Z,18.77
2018-12-19T20:56:03.845Z,25.23
2018-12-19T20:58:36.864Z,24.83
2018-12-19T21:01:09.870Z,24.40
2018-12-19T21:03:46.553Z,23.53
2018-12-19T21:06:18.432Z,24.63
2018-12-19T21:08:48.905Z,25.33
2018-12-19T21:11:21.447Z,24.77
2018-12-19T21:13:53.615Z,23.50
2018-12-19T21:18:34.645Z,23.90
2018-12-19T21:21:07.277Z,26.77
2018-12-19T21:23:42.687Z,27.23
2018-12-19T21:26:17.154Z,24.17
2018-12-19T21:28:49.097Z,26.33
2018-12-19T21:31:26.028Z,25.67
2018-12-19T21:34:10.236Z,22.83
2018-12-19T21:36:53.365Z,25.13
2018-12-19T21:39:37.247Z,22.17
2018-12-19T21:42:15.139Z,24.97
2018-12-19T21:44:48.665Z,25.10
2018-12-19T21:47:23.035Z,26.80
2018-12-19T21:49:54.977Z,26.60
2018-12-19T21:52:27.226Z,25.53
2018-12-19T21:54:59.565Z,24.57
2018-12-19T21:57:37.271Z,25.87
2018-12-19T22:03:07.955Z,25.13
2018-12-19T22:05:40.894Z,22.53
2018-12-19T22:08:13.098Z,25.87
2018-12-19T22:10:45.743Z,26.30
2018-12-19T22:13:18.718Z,24.23
2018-12-19T22:15:52.184Z,25.30
2018-12-19T22:18:30.463Z,26.00
2018-12-19T22:21:03.009Z,22.47
2018-12-19T22:23:35.588Z,25.27
2018-12-19T22:26:07.910Z,26.60
2018-12-19T22:28:45.128Z,25.43
2018-12-19T22:31:16.976Z,26.87
2018-12-19T22:33:48.975Z,25.93
2018-12-19T22:36:19.851Z,26.77
2018-12-19T22:38:51.891Z,24.23
2018-12-19T22:41:23.766Z,26.83
2018-12-19T22:43:57.233Z,27.17
2018-12-19T22:46:29.097Z,26.10
2018-12-19T22:49:00.980Z,25.40
2018-12-19T22:51:35.465Z,26.33
2018-12-19T22:54:10.136Z,25.23
2018-12-19T22:56:43.165Z,26.63
2018-12-19T22:59:16.698Z,26.13
2018-12-19T23:01:53.532Z,26.13
2018-12-19T23:04:25.799Z,24.40
2018-12-19T23:06:57.525Z,26.07
2018-12-19T23:09:32.237Z,27.83
2018-12-19T23:12:04.179Z,25.93
2018-12-19T23:14:38.628Z,26.70
2018-12-19T23:17:28.226Z,25.67
2018-12-19T23:20:02.863Z,26.73
2018-12-19T23:22:34.783Z,26.37
2018-12-19T23:25:07.941Z,25.93
2018-12-19T23:27:40.444Z,26.10
2018-12-19T23:30:14.056Z,26.33
2018-12-19T23:32:47.009Z,25.83
2018-12-19T23:35:20.875Z,22.80
2018-12-19T23:37:53.430Z,27.67
2018-12-19T23:40:25.659Z,24.03
2018-12-19T23:42:58.742Z,26.90
2018-12-19T23:45:30.768Z,26.73
2018-12-19T23:48:03.223Z,27.43
2018-12-19T23:50:34.922Z,26.33
2018-12-19T23:53:07.311Z,27.77
2018-12-19T23:55:39.932Z,27.00
2018-12-19T23:58:12.343Z,26.57
